sensor_id;sensor_type;location;lat;lon;timestamp;temperature;humidity
17887;DHT22;9069;52.044;7.472;2022-12-18T00:01:37;-2.70;94.70
17887;DHT22;9069;52.044;7.472;2022-12-18T00:04:06;-2.80;94.60
17887;DHT22;9069;52.044;7.472;2022-12-18T00:06:35;-2.80;95.00
17887;DHT22;9069;52.044;7.472;2022-12-18T00:09:02;-2.80;95.30
17887;DHT22;9069;52.044;7.472;2022-12-18T00:11:30;-2.80;95.30
17887;DHT22;9069;52.044;7.472;2022-12-18T00:13:58;-2.80;95.20
17887;DHT22;9069;52.044;7.472;2022-12-18T00:16:27;-2.80;95.00
17887;DHT22;9069;52.044;7.472;2022-12-18T00:18:56;-2.90;95.00
17887;DHT22;9069;52.044;7.472;2022-12-18T00:21:23;-2.90;94.90
17887;DHT22;9069;52.044;7.472;2022-12-18T00:23:50;-2.90;94.80
17887;DHT22;9069;52.044;7.472;2022-12-18T00:26:28;-2.90;94.70
17887;DHT22;9069;52.044;7.472;2022-12-18T00:29:09;-3.00;94.50
17887;DHT22;9069;52.044;7.472;2022-12-18T00:31:37;-3.00;94.60
17887;DHT22;9069;52.044;7.472;2022-12-18T00:34:04;-3.00;94.60
17887;DHT22;9069;52.044;7.472;2022-12-18T00:36:33;-3.10;94.50
17887;DHT22;9069;52.044;7.472;2022-12-18T00:39:04;-3.10;94.40
17887;DHT22;9069;52.044;7.472;2022-12-18T00:41:31;-2.90;94.50
17887;DHT22;9069;52.044;7.472;2022-12-18T00:44:18;-3.20;94.70
17887;DHT22;9069;52.044;7.472;2022-12-18T00:46:46;-3.20;94.80
17887;DHT22;9069;52.044;7.472;2022-12-18T00:49:13;-3.20;94.90
17887;DHT22;9069;52.044;7.472;2022-12-18T00:51:40;-3.20;95.00
17887;DHT22;9069;52.044;7.472;2022-12-18T00:54:06;-3.10;95.00
17887;DHT22;9069;52.044;7.472;2022-12-18T00:56:35;-3.20;95.10
17887;DHT22;9069;52.044;7.472;2022-12-18T00:59:11;-3.30;95.20
17887;DHT22;9069;52.044;7.472;2022-12-18T01:01:38;-3.30;95.30
17887;DHT22;9069;52.044;7.472;2022-12-18T01:04:05;-3.30;95.40
17887;DHT22;9069;52.044;7.472;2022-12-18T01:06:32;-3.30;95.60
17887;DHT22;9069;52.044;7.472;2022-12-18T01:08:58;-3.30;95.70
17887;DHT22;9069;52.044;7.472;2022-12-18T01:11:25;-3.30;95.90
17887;DHT22;9069;52.044;7.472;2022-12-18T01:13:53;-3.10;96.00
17887;DHT22;9069;52.044;7.472;2022-12-18T01:16:22;-3.20;96.10
17887;DHT22;9069;52.044;7.472;2022-12-18T01:18:52;-3.20;96.20
17887;DHT22;9069;52.044;7.472;2022-12-18T01:21:20;-3.20;96.20
17887;DHT22;9069;52.044;7.472;2022-12-18T01:23:51;-3.10;96.30
17887;DHT22;9069;52.044;7.472;2022-12-18T01:26:18;-3.10;96.30
17887;DHT22;9069;52.044;7.472;2022-12-18T01:28:45;-3.10;96.40
17887;DHT22;9069;52.044;7.472;2022-12-18T01:33:44;-3.00;96.30
17887;DHT22;9069;52.044;7.472;2022-12-18T01:36:29;-3.00;96.30
17887;DHT22;9069;52.044;7.472;2022-12-18T01:38:58;-3.00;96.10
17887;DHT22;9069;52.044;7.472;2022-12-18T01:41:27;-3.00;96.10
17887;DHT22;9069;52.044;7.472;2022-12-18T01:44:53;-2.90;96.10
17887;DHT22;9069;52.044;7.472;2022-12-18T01:47:43;-2.90;96.00
17887;DHT22;9069;52.044;7.472;2022-12-18T01:50:23;-2.90;95.90
17887;DHT22;9069;52.044;7.472;2022-12-18T01:55:39;-2.90;96.00
17887;DHT22;9069;52.044;7.472;2022-12-18T01:58:09;-2.90;96.00
17887;DHT22;9069;52.044;7.472;2022-12-18T02:00:36;-2.90;96.00
17887;DHT22;9069;52.044;7.472;2022-12-18T02:03:03;-2.80;96.00
17887;DHT22;9069;52.044;7.472;2022-12-18T02:05:54;-2.80;96.00
17887;DHT22;9069;52.044;7.472;2022-12-18T02:08:32;-2.80;95.90
17887;DHT22;9069;52.044;7.472;2022-12-18T02:17:18;-2.80;95.80
17887;DHT22;9069;52.044;7.472;2022-12-18T02:20:02;-2.80;95.90
17887;DHT22;9069;52.044;7.472;2022-12-18T02:28:21;-2.70;95.90
17887;DHT22;9069;52.044;7.472;2022-12-18T02:30:53;-2.70;96.00
17887;DHT22;9069;52.044;7.472;2022-12-18T02:33:24;-2.70;95.90
17887;DHT22;9069;52.044;7.472;2022-12-18T02:35:53;-2.70;96.00
17887;DHT22;9069;52.044;7.472;2022-12-18T02:38:23;-2.70;96.00
17887;DHT22;9069;52.044;7.472;2022-12-18T02:40:52;-2.70;96.10
17887;DHT22;9069;52.044;7.472;2022-12-18T02:43:20;-2.70;96.10
17887;DHT22;9069;52.044;7.472;2022-12-18T02:45:56;-2.70;96.10
17887;DHT22;9069;52.044;7.472;2022-12-18T02:48:31;-2.70;96.10
17887;DHT22;9069;52.044;7.472;2022-12-18T02:51:19;-2.70;96.00
17887;DHT22;9069;52.044;7.472;2022-12-18T02:53:58;-2.70;95.90
17887;DHT22;9069;52.044;7.472;2022-12-18T02:56:32;-2.70;96.00
17887;DHT22;9069;52.044;7.472;2022-12-18T02:59:08;-2.70;96.00
17887;DHT22;9069;52.044;7.472;2022-12-18T03:04:43;-2.70;95.90
17887;DHT22;9069;52.044;7.472;2022-12-18T03:07:16;-2.70;95.80
17887;DHT22;9069;52.044;7.472;2022-12-18T03:09:49;-2.70;95.70
17887;DHT22;9069;52.044;7.472;2022-12-18T03:12:21;-2.70;95.70
17887;DHT22;9069;52.044;7.472;2022-12-18T03:17:33;-2.70;95.90
17887;DHT22;9069;52.044;7.472;2022-12-18T03:20:05;-2.70;96.10
17887;DHT22;9069;52.044;7.472;2022-12-18T03:22:35;-2.70;96.10
17887;DHT22;9069;52.044;7.472;2022-12-18T03:25:07;-2.70;96.20
17887;DHT22;9069;52.044;7.472;2022-12-18T03:27:38;-2.70;96.30
17887;DHT22;9069;52.044;7.472;2022-12-18T03:30:12;-2.70;96.40
17887;DHT22;9069;52.044;7.472;2022-12-18T03:32:41;-2.70;96.50
17887;DHT22;9069;52.044;7.472;2022-12-18T03:35:11;-2.60;96.60
17887;DHT22;9069;52.044;7.472;2022-12-18T03:37:39;-2.60;96.60
17887;DHT22;9069;52.044;7.472;2022-12-18T03:40:07;-2.60;96.70
17887;DHT22;9069;52.044;7.472;2022-12-18T03:42:46;-2.50;96.70
17887;DHT22;9069;52.044;7.472;2022-12-18T03:45:27;-2.60;96.70
17887;DHT22;9069;52.044;7.472;2022-12-18T03:48:02;-2.50;96.70
17887;DHT22;9069;52.044;7.472;2022-12-18T03:50:53;-2.50;96.70
17887;DHT22;9069;52.044;7.472;2022-12-18T03:53:28;-2.50;96.60
17887;DHT22;9069;52.044;7.472;2022-12-18T03:55:58;-2.50;96.60
17887;DHT22;9069;52.044;7.472;2022-12-18T03:58:31;-2.40;96.60
17887;DHT22;9069;52.044;7.472;2022-12-18T04:01:16;-2.40;96.40
17887;DHT22;9069;52.044;7.472;2022-12-18T04:03:46;-2.50;96.00
17887;DHT22;9069;52.044;7.472;2022-12-18T04:06:17;-2.50;95.80
17887;DHT22;9069;52.044;7.472;2022-12-18T04:08:45;-2.50;95.80
17887;DHT22;9069;52.044;7.472;2022-12-18T04:11:15;-2.50;95.80
17887;DHT22;9069;52.044;7.472;2022-12-18T04:13:44;-2.60;95.90
17887;DHT22;9069;52.044;7.472;2022-12-18T04:18:59;-2.60;96.20
17887;DHT22;9069;52.044;7.472;2022-12-18T04:21:30;-2.60;96.40
17887;DHT22;9069;52.044;7.472;2022-12-18T04:23:56;-2.60;96.50
17887;DHT22;9069;52.044;7.472;2022-12-18T04:26:23;-2.60;96.60
17887;DHT22;9069;52.044;7.472;2022-12-18T04:29:00;-2.60;96.70
17887;DHT22;9069;52.044;7.472;2022-12-18T04:31:27;-2.50;96.70
17887;DHT22;9069;52.044;7.472;2022-12-18T04:33:55;-2.50;96.70
17887;DHT22;9069;52.044;7.472;2022-12-18T04:36:22;-2.50;96.70
17887;DHT22;9069;52.044;7.472;2022-12-18T04:38:52;-2.50;96.70
17887;DHT22;9069;52.044;7.472;2022-12-18T04:41:20;-2.50;96.60
17887;DHT22;9069;52.044;7.472;2022-12-18T04:43:47;-2.50;96.70
17887;DHT22;9069;52.044;7.472;2022-12-18T04:46:14;-2.50;96.60
17887;DHT22;9069;52.044;7.472;2022-12-18T04:48:41;-2.50;96.50
17887;DHT22;9069;52.044;7.472;2022-12-18T04:51:08;-2.50;96.40
17887;DHT22;9069;52.044;7.472;2022-12-18T04:53:34;-2.50;96.20
17887;DHT22;9069;52.044;7.472;2022-12-18T04:56:08;-2.50;96.10
17887;DHT22;9069;52.044;7.472;2022-12-18T04:58:36;-2.50;96.00
17887;DHT22;9069;52.044;7.472;2022-12-18T05:01:03;-2.50;96.10
17887;DHT22;9069;52.044;7.472;2022-12-18T05:03:30;-2.50;96.20
17887;DHT22;9069;52.044;7.472;2022-12-18T05:05:57;-2.50;96.30
17887;DHT22;9069;52.044;7.472;2022-12-18T05:08:24;-2.60;96.30
17887;DHT22;9069;52.044;7.472;2022-12-18T05:10:58;-2.50;96.40
17887;DHT22;9069;52.044;7.472;2022-12-18T05:13:26;-2.50;96.40
17887;DHT22;9069;52.044;7.472;2022-12-18T05:15:54;-2.50;96.60
17887;DHT22;9069;52.044;7.472;2022-12-18T05:18:21;-2.50;96.70
17887;DHT22;9069;52.044;7.472;2022-12-18T05:20:50;-2.50;96.80
17887;DHT22;9069;52.044;7.472;2022-12-18T05:23:17;-2.50;96.80
17887;DHT22;9069;52.044;7.472;2022-12-18T05:25:55;-2.50;96.80
17887;DHT22;9069;52.044;7.472;2022-12-18T05:28:23;-2.50;96.80
17887;DHT22;9069;52.044;7.472;2022-12-18T05:30:56;-2.40;96.90
17887;DHT22;9069;52.044;7.472;2022-12-18T05:33:25;-2.40;96.80
17887;DHT22;9069;52.044;7.472;2022-12-18T05:35:53;-2.40;96.80
17887;DHT22;9069;52.044;7.472;2022-12-18T05:38:22;-2.40;96.70
17887;DHT22;9069;52.044;7.472;2022-12-18T05:40:50;-2.40;96.70
17887;DHT22;9069;52.044;7.472;2022-12-18T05:43:17;-2.40;96.70
17887;DHT22;9069;52.044;7.472;2022-12-18T05:45:48;-2.40;96.90
17887;DHT22;9069;52.044;7.472;2022-12-18T05:48:15;-2.40;96.90
17887;DHT22;9069;52.044;7.472;2022-12-18T05:50:43;-2.40;97.00
17887;DHT22;9069;52.044;7.472;2022-12-18T05:53:13;-2.30;97.10
17887;DHT22;9069;52.044;7.472;2022-12-18T05:55:42;-2.30;97.00
17887;DHT22;9069;52.044;7.472;2022-12-18T05:58:10;-2.30;97.10
17887;DHT22;9069;52.044;7.472;2022-12-18T06:00:43;-2.30;97.10
17887;DHT22;9069;52.044;7.472;2022-12-18T06:03:12;-2.30;97.10
17887;DHT22;9069;52.044;7.472;2022-12-18T06:05:42;-2.30;97.20
17887;DHT22;9069;52.044;7.472;2022-12-18T06:08:09;-2.30;97.20
17887;DHT22;9069;52.044;7.472;2022-12-18T06:10:37;-2.20;97.20
17887;DHT22;9069;52.044;7.472;2022-12-18T06:13:04;-2.20;97.10
17887;DHT22;9069;52.044;7.472;2022-12-18T06:15:31;-2.20;97.00
17887;DHT22;9069;52.044;7.472;2022-12-18T06:17:59;-2.20;96.80
17887;DHT22;9069;52.044;7.472;2022-12-18T06:20:26;-2.20;96.60
17887;DHT22;9069;52.044;7.472;2022-12-18T06:22:59;-2.20;96.50
17887;DHT22;9069;52.044;7.472;2022-12-18T06:25:25;-2.20;96.30
17887;DHT22;9069;52.044;7.472;2022-12-18T06:27:52;-2.30;96.20
17887;DHT22;9069;52.044;7.472;2022-12-18T06:30:19;-2.30;96.10
17887;DHT22;9069;52.044;7.472;2022-12-18T06:32:48;-2.30;96.10
17887;DHT22;9069;52.044;7.472;2022-12-18T06:35:21;-2.30;96.10
17887;DHT22;9069;52.044;7.472;2022-12-18T06:37:48;-2.30;96.20
17887;DHT22;9069;52.044;7.472;2022-12-18T06:40:15;-2.30;96.20
17887;DHT22;9069;52.044;7.472;2022-12-18T06:42:41;-2.40;96.30
17887;DHT22;9069;52.044;7.472;2022-12-18T06:45:08;-2.40;96.40
17887;DHT22;9069;52.044;7.472;2022-12-18T06:47:35;-2.40;96.40
17887;DHT22;9069;52.044;7.472;2022-12-18T06:50:02;-2.40;96.50
17887;DHT22;9069;52.044;7.472;2022-12-18T06:52:31;-2.40;96.50
17887;DHT22;9069;52.044;7.472;2022-12-18T06:54:58;-2.40;96.40
17887;DHT22;9069;52.044;7.472;2022-12-18T06:57:25;-2.40;96.30
17887;DHT22;9069;52.044;7.472;2022-12-18T06:59:51;-2.40;96.10
17887;DHT22;9069;52.044;7.472;2022-12-18T07:02:18;-2.40;95.90
17887;DHT22;9069;52.044;7.472;2022-12-18T07:04:45;-2.50;95.70
17887;DHT22;9069;52.044;7.472;2022-12-18T07:07:12;-2.50;95.50
17887;DHT22;9069;52.044;7.472;2022-12-18T07:09:38;-2.50;95.40
17887;DHT22;9069;52.044;7.472;2022-12-18T07:12:05;-2.60;95.50
17887;DHT22;9069;52.044;7.472;2022-12-18T07:14:33;-2.60;95.10
17887;DHT22;9069;52.044;7.472;2022-12-18T07:17:00;-2.70;94.90
17887;DHT22;9069;52.044;7.472;2022-12-18T07:19:27;-2.70;94.90
17887;DHT22;9069;52.044;7.472;2022-12-18T07:21:54;-2.80;94.80
17887;DHT22;9069;52.044;7.472;2022-12-18T07:24:21;-2.90;94.80
17887;DHT22;9069;52.044;7.472;2022-12-18T07:26:48;-2.90;94.80
17887;DHT22;9069;52.044;7.472;2022-12-18T07:29:14;-3.00;94.90
17887;DHT22;9069;52.044;7.472;2022-12-18T07:31:41;-3.10;94.90
17887;DHT22;9069;52.044;7.472;2022-12-18T07:34:12;-3.10;94.90
17887;DHT22;9069;52.044;7.472;2022-12-18T07:36:39;-3.20;94.80
17887;DHT22;9069;52.044;7.472;2022-12-18T07:39:06;-3.20;94.90
17887;DHT22;9069;52.044;7.472;2022-12-18T07:41:33;-3.30;94.90
17887;DHT22;9069;52.044;7.472;2022-12-18T07:44:10;-3.30;94.80
17887;DHT22;9069;52.044;7.472;2022-12-18T07:46:37;-3.40;95.00
17887;DHT22;9069;52.044;7.472;2022-12-18T07:49:03;-3.40;95.20
17887;DHT22;9069;52.044;7.472;2022-12-18T07:51:30;-3.40;95.20
17887;DHT22;9069;52.044;7.472;2022-12-18T07:53:57;-3.50;95.30
17887;DHT22;9069;52.044;7.472;2022-12-18T07:56:23;-3.50;95.50
17887;DHT22;9069;52.044;7.472;2022-12-18T07:58:54;-3.50;95.60
17887;DHT22;9069;52.044;7.472;2022-12-18T08:01:21;-3.60;95.70
17887;DHT22;9069;52.044;7.472;2022-12-18T08:03:48;-3.60;95.90
17887;DHT22;9069;52.044;7.472;2022-12-18T08:06:17;-3.60;95.90
17887;DHT22;9069;52.044;7.472;2022-12-18T08:08:44;-3.60;96.00
17887;DHT22;9069;52.044;7.472;2022-12-18T08:11:10;-3.60;96.10
17887;DHT22;9069;52.044;7.472;2022-12-18T08:13:37;-3.60;96.20
17887;DHT22;9069;52.044;7.472;2022-12-18T08:16:06;-3.60;96.30
17887;DHT22;9069;52.044;7.472;2022-12-18T08:18:35;-3.50;96.50
17887;DHT22;9069;52.044;7.472;2022-12-18T08:21:13;-3.50;96.50
17887;DHT22;9069;52.044;7.472;2022-12-18T08:23:40;-3.50;96.60
17887;DHT22;9069;52.044;7.472;2022-12-18T08:26:10;-3.50;96.70
17887;DHT22;9069;52.044;7.472;2022-12-18T08:28:36;-3.40;96.80
17887;DHT22;9069;52.044;7.472;2022-12-18T08:31:04;-3.40;96.80
17887;DHT22;9069;52.044;7.472;2022-12-18T08:33:31;-3.40;96.90
17887;DHT22;9069;52.044;7.472;2022-12-18T08:35:59;-3.40;96.90
17887;DHT22;9069;52.044;7.472;2022-12-18T08:38:25;-3.30;96.90
17887;DHT22;9069;52.044;7.472;2022-12-18T08:40:59;-3.30;96.90
17887;DHT22;9069;52.044;7.472;2022-12-18T08:43:27;-3.30;96.90
17887;DHT22;9069;52.044;7.472;2022-12-18T08:46:12;-3.30;96.90
17887;DHT22;9069;52.044;7.472;2022-12-18T08:48:42;-3.30;96.90
17887;DHT22;9069;52.044;7.472;2022-12-18T08:51:09;-3.20;97.00
17887;DHT22;9069;52.044;7.472;2022-12-18T08:53:36;-3.20;97.00
17887;DHT22;9069;52.044;7.472;2022-12-18T08:56:04;-3.20;97.00
17887;DHT22;9069;52.044;7.472;2022-12-18T08:58:31;-3.20;97.00
17887;DHT22;9069;52.044;7.472;2022-12-18T09:01:07;-3.10;97.00
17887;DHT22;9069;52.044;7.472;2022-12-18T09:03:35;-3.10;96.90
17887;DHT22;9069;52.044;7.472;2022-12-18T09:06:03;-3.10;97.00
17887;DHT22;9069;52.044;7.472;2022-12-18T09:08:30;-3.00;97.10
17887;DHT22;9069;52.044;7.472;2022-12-18T09:10:56;-3.00;97.20
17887;DHT22;9069;52.044;7.472;2022-12-18T09:13:23;-3.00;97.30
17887;DHT22;9069;52.044;7.472;2022-12-18T09:15:52;-3.00;97.40
17887;DHT22;9069;52.044;7.472;2022-12-18T09:18:20;-2.90;97.60
17887;DHT22;9069;52.044;7.472;2022-12-18T09:20:47;-2.90;97.90
17887;DHT22;9069;52.044;7.472;2022-12-18T09:23:14;-2.80;98.20
17887;DHT22;9069;52.044;7.472;2022-12-18T09:25:41;-2.70;98.60
17887;DHT22;9069;52.044;7.472;2022-12-18T09:28:17;-2.50;98.90
17887;DHT22;9069;52.044;7.472;2022-12-18T09:30:47;-2.40;99.00
17887;DHT22;9069;52.044;7.472;2022-12-18T09:33:16;-2.20;99.10
17887;DHT22;9069;52.044;7.472;2022-12-18T09:35:44;-2.10;99.00
17887;DHT22;9069;52.044;7.472;2022-12-18T09:38:13;-1.90;98.80
17887;DHT22;9069;52.044;7.472;2022-12-18T09:40:50;-1.80;98.60
17887;DHT22;9069;52.044;7.472;2022-12-18T09:43:26;-1.70;98.30
17887;DHT22;9069;52.044;7.472;2022-12-18T09:45:59;-1.50;98.20
17887;DHT22;9069;52.044;7.472;2022-12-18T09:48:36;-1.40;98.30
17887;DHT22;9069;52.044;7.472;2022-12-18T09:51:13;-1.30;98.40
17887;DHT22;9069;52.044;7.472;2022-12-18T09:53:44;-1.20;98.40
17887;DHT22;9069;52.044;7.472;2022-12-18T09:56:16;-1.10;98.40
17887;DHT22;9069;52.044;7.472;2022-12-18T09:59:05;-1.00;98.30
17887;DHT22;9069;52.044;7.472;2022-12-18T10:01:32;-0.90;98.20
17887;DHT22;9069;52.044;7.472;2022-12-18T10:04:09;-0.60;98.40
17887;DHT22;9069;52.044;7.472;2022-12-18T10:06:55;-0.60;98.20
17887;DHT22;9069;52.044;7.472;2022-12-18T10:09:53;-0.50;98.00
17887;DHT22;9069;52.044;7.472;2022-12-18T10:12:35;-0.40;98.00
17887;DHT22;9069;52.044;7.472;2022-12-18T10:15:10;-0.30;97.60
17887;DHT22;9069;52.044;7.472;2022-12-18T10:17:55;-0.30;97.50
17887;DHT22;9069;52.044;7.472;2022-12-18T10:20:32;-0.20;97.20
17887;DHT22;9069;52.044;7.472;2022-12-18T10:26:00;-0.10;96.90
17887;DHT22;9069;52.044;7.472;2022-12-18T10:28:30;-0.10;96.60
17887;DHT22;9069;52.044;7.472;2022-12-18T10:30:57;-0.10;96.80
17887;DHT22;9069;52.044;7.472;2022-12-18T10:33:28;-0.10;96.80
17887;DHT22;9069;52.044;7.472;2022-12-18T10:35:55;-0.20;96.70
17887;DHT22;9069;52.044;7.472;2022-12-18T10:38:32;-0.10;96.80
17887;DHT22;9069;52.044;7.472;2022-12-18T10:41:02;-0.20;96.70
17887;DHT22;9069;52.044;7.472;2022-12-18T10:43:36;-0.20;96.90
17887;DHT22;9069;52.044;7.472;2022-12-18T10:48:51;-0.10;97.00
17887;DHT22;9069;52.044;7.472;2022-12-18T10:51:36;0.00;97.00
17887;DHT22;9069;52.044;7.472;2022-12-18T10:54:07;-0.10;97.00
17887;DHT22;9069;52.044;7.472;2022-12-18T10:56:40;-0.10;97.10
17887;DHT22;9069;52.044;7.472;2022-12-18T10:59:15;-0.10;97.20
17887;DHT22;9069;52.044;7.472;2022-12-18T11:01:55;-0.10;97.30
17887;DHT22;9069;52.044;7.472;2022-12-18T11:04:25;-0.10;97.40
17887;DHT22;9069;52.044;7.472;2022-12-18T11:09:22;-0.10;97.60
17887;DHT22;9069;52.044;7.472;2022-12-18T11:12:36;0.00;97.80
17887;DHT22;9069;52.044;7.472;2022-12-18T11:14:54;0.00;97.90
17887;DHT22;9069;52.044;7.472;2022-12-18T11:17:32;0.00;97.90
17887;DHT22;9069;52.044;7.472;2022-12-18T11:20:03;0.00;98.00
17887;DHT22;9069;52.044;7.472;2022-12-18T11:22:34;0.10;98.10
17887;DHT22;9069;52.044;7.472;2022-12-18T11:25:06;0.10;98.20
17887;DHT22;9069;52.044;7.472;2022-12-18T11:28:25;0.20;98.30
17887;DHT22;9069;52.044;7.472;2022-12-18T11:31:18;0.20;98.30
17887;DHT22;9069;52.044;7.472;2022-12-18T11:36:45;0.30;98.40
17887;DHT22;9069;52.044;7.472;2022-12-18T11:39:35;0.30;98.40
17887;DHT22;9069;52.044;7.472;2022-12-18T11:42:16;0.40;98.50
17887;DHT22;9069;52.044;7.472;2022-12-18T11:48:04;0.40;98.60
17887;DHT22;9069;52.044;7.472;2022-12-18T11:53:03;0.50;98.60
17887;DHT22;9069;52.044;7.472;2022-12-18T11:56:00;0.50;98.70
17887;DHT22;9069;52.044;7.472;2022-12-18T11:58:43;0.50;98.60
17887;DHT22;9069;52.044;7.472;2022-12-18T12:15:13;0.70;98.80
17887;DHT22;9069;52.044;7.472;2022-12-18T12:34:17;0.90;98.90
17887;DHT22;9069;52.044;7.472;2022-12-18T12:39:44;0.90;98.90
17887;DHT22;9069;52.044;7.472;2022-12-18T12:42:39;1.00;98.90
17887;DHT22;9069;52.044;7.472;2022-12-18T12:48:24;1.00;98.90
17887;DHT22;9069;52.044;7.472;2022-12-18T12:50:55;1.00;98.90
17887;DHT22;9069;52.044;7.472;2022-12-18T12:53:31;1.20;99.00
17887;DHT22;9069;52.044;7.472;2022-12-18T12:56:01;1.00;99.00
17887;DHT22;9069;52.044;7.472;2022-12-18T13:07:45;1.10;99.00
17887;DHT22;9069;52.044;7.472;2022-12-18T13:18:22;1.20;99.10
17887;DHT22;9069;52.044;7.472;2022-12-18T13:28:54;1.20;99.20
17887;DHT22;9069;52.044;7.472;2022-12-18T13:34:23;1.20;99.10
17887;DHT22;9069;52.044;7.472;2022-12-18T13:36:56;1.30;99.20
17887;DHT22;9069;52.044;7.472;2022-12-18T13:39:26;1.30;99.20
17887;DHT22;9069;52.044;7.472;2022-12-18T13:44:41;1.30;99.20
17887;DHT22;9069;52.044;7.472;2022-12-18T13:47:33;1.30;99.20
17887;DHT22;9069;52.044;7.472;2022-12-18T13:50:10;1.30;99.20
17887;DHT22;9069;52.044;7.472;2022-12-18T13:52:46;1.30;99.20
17887;DHT22;9069;52.044;7.472;2022-12-18T13:55:19;1.30;99.20
17887;DHT22;9069;52.044;7.472;2022-12-18T13:57:47;1.40;99.10
17887;DHT22;9069;52.044;7.472;2022-12-18T14:00:29;1.30;99.10
17887;DHT22;9069;52.044;7.472;2022-12-18T14:02:56;1.40;99.00
17887;DHT22;9069;52.044;7.472;2022-12-18T14:08:01;1.40;99.00
17887;DHT22;9069;52.044;7.472;2022-12-18T14:10:32;1.40;98.80
17887;DHT22;9069;52.044;7.472;2022-12-18T14:13:41;1.50;98.90
17887;DHT22;9069;52.044;7.472;2022-12-18T14:16:13;1.50;98.80
17887;DHT22;9069;52.044;7.472;2022-12-18T14:21:21;1.50;98.80
17887;DHT22;9069;52.044;7.472;2022-12-18T14:23:48;1.50;98.70
17887;DHT22;9069;52.044;7.472;2022-12-18T14:26:33;1.60;98.80
17887;DHT22;9069;52.044;7.472;2022-12-18T14:29:17;1.60;98.90
17887;DHT22;9069;52.044;7.472;2022-12-18T14:31:45;1.60;98.70
17887;DHT22;9069;52.044;7.472;2022-12-18T14:34:16;1.60;98.70
17887;DHT22;9069;52.044;7.472;2022-12-18T14:36:52;1.60;98.50
17887;DHT22;9069;52.044;7.472;2022-12-18T14:39:19;1.60;98.50
17887;DHT22;9069;52.044;7.472;2022-12-18T14:41:48;1.70;98.50
17887;DHT22;9069;52.044;7.472;2022-12-18T14:44:16;1.60;98.40
17887;DHT22;9069;52.044;7.472;2022-12-18T14:46:44;1.70;98.40
17887;DHT22;9069;52.044;7.472;2022-12-18T14:49:26;1.80;98.70
17887;DHT22;9069;52.044;7.472;2022-12-18T14:51:56;1.70;98.10
17887;DHT22;9069;52.044;7.472;2022-12-18T14:54:27;1.70;98.20
17887;DHT22;9069;52.044;7.472;2022-12-18T14:59:39;1.70;98.10
17887;DHT22;9069;52.044;7.472;2022-12-18T15:02:26;1.70;98.10
17887;DHT22;9069;52.044;7.472;2022-12-18T15:07:40;1.70;97.90
17887;DHT22;9069;52.044;7.472;2022-12-18T15:12:47;1.70;98.00
17887;DHT22;9069;52.044;7.472;2022-12-18T15:18:05;1.70;97.80
17887;DHT22;9069;52.044;7.472;2022-12-18T15:20:40;1.70;97.90
17887;DHT22;9069;52.044;7.472;2022-12-18T15:26:06;1.80;97.70
17887;DHT22;9069;52.044;7.472;2022-12-18T15:36:20;1.80;97.60
17887;DHT22;9069;52.044;7.472;2022-12-18T15:38:53;1.80;97.70
17887;DHT22;9069;52.044;7.472;2022-12-18T15:41:22;1.80;97.60
17887;DHT22;9069;52.044;7.472;2022-12-18T15:43:52;1.80;97.50
17887;DHT22;9069;52.044;7.472;2022-12-18T15:46:21;1.80;97.50
17887;DHT22;9069;52.044;7.472;2022-12-18T15:48:50;1.80;97.40
17887;DHT22;9069;52.044;7.472;2022-12-18T15:51:26;2.00;97.50
17887;DHT22;9069;52.044;7.472;2022-12-18T15:53:56;1.90;97.40
17887;DHT22;9069;52.044;7.472;2022-12-18T15:56:25;1.90;97.50
17887;DHT22;9069;52.044;7.472;2022-12-18T15:59:16;1.90;97.40
17887;DHT22;9069;52.044;7.472;2022-12-18T16:01:45;2.00;97.30
17887;DHT22;9069;52.044;7.472;2022-12-18T16:04:14;1.90;97.20
17887;DHT22;9069;52.044;7.472;2022-12-18T16:06:42;1.90;97.20
17887;DHT22;9069;52.044;7.472;2022-12-18T16:09:28;1.90;97.20
17887;DHT22;9069;52.044;7.472;2022-12-18T16:11:55;2.00;97.10
17887;DHT22;9069;52.044;7.472;2022-12-18T16:14:24;2.00;97.00
17887;DHT22;9069;52.044;7.472;2022-12-18T16:16:57;2.00;97.10
17887;DHT22;9069;52.044;7.472;2022-12-18T16:19:24;2.00;97.00
17887;DHT22;9069;52.044;7.472;2022-12-18T16:21:52;2.00;96.80
17887;DHT22;9069;52.044;7.472;2022-12-18T16:24:26;2.10;96.60
17887;DHT22;9069;52.044;7.472;2022-12-18T16:26:53;2.10;96.60
17887;DHT22;9069;52.044;7.472;2022-12-18T16:29:24;2.10;96.70
17887;DHT22;9069;52.044;7.472;2022-12-18T16:31:54;2.10;96.50
17887;DHT22;9069;52.044;7.472;2022-12-18T16:34:33;2.10;96.50
17887;DHT22;9069;52.044;7.472;2022-12-18T16:37:06;2.10;96.30
17887;DHT22;9069;52.044;7.472;2022-12-18T16:39:34;2.20;96.40
17887;DHT22;9069;52.044;7.472;2022-12-18T16:42:25;2.20;96.60
17887;DHT22;9069;52.044;7.472;2022-12-18T16:44:52;2.20;96.50
17887;DHT22;9069;52.044;7.472;2022-12-18T16:47:19;2.20;96.50
17887;DHT22;9069;52.044;7.472;2022-12-18T16:49:45;2.20;96.50
17887;DHT22;9069;52.044;7.472;2022-12-18T16:52:13;2.30;96.50
17887;DHT22;9069;52.044;7.472;2022-12-18T16:54:40;2.30;96.30
17887;DHT22;9069;52.044;7.472;2022-12-18T16:57:09;2.30;96.20
17887;DHT22;9069;52.044;7.472;2022-12-18T16:59:38;2.30;96.00
17887;DHT22;9069;52.044;7.472;2022-12-18T17:02:14;2.30;96.10
17887;DHT22;9069;52.044;7.472;2022-12-18T17:04:43;2.30;95.70
17887;DHT22;9069;52.044;7.472;2022-12-18T17:07:11;2.40;96.10
17887;DHT22;9069;52.044;7.472;2022-12-18T17:09:38;2.40;96.20
17887;DHT22;9069;52.044;7.472;2022-12-18T17:12:05;2.40;95.80
17887;DHT22;9069;52.044;7.472;2022-12-18T17:14:32;2.40;95.80
17887;DHT22;9069;52.044;7.472;2022-12-18T17:17:00;2.40;95.80
17887;DHT22;9069;52.044;7.472;2022-12-18T17:19:46;2.60;95.80
17887;DHT22;9069;52.044;7.472;2022-12-18T17:22:13;2.50;95.80
17887;DHT22;9069;52.044;7.472;2022-12-18T17:24:39;2.50;95.80
17887;DHT22;9069;52.044;7.472;2022-12-18T17:27:06;2.50;95.80
17887;DHT22;9069;52.044;7.472;2022-12-18T17:29:34;2.50;95.70
17887;DHT22;9069;52.044;7.472;2022-12-18T17:32:01;2.50;95.60
17887;DHT22;9069;52.044;7.472;2022-12-18T17:34:28;2.50;95.60
17887;DHT22;9069;52.044;7.472;2022-12-18T17:36:55;2.50;95.70
17887;DHT22;9069;52.044;7.472;2022-12-18T17:39:22;2.50;95.50
17887;DHT22;9069;52.044;7.472;2022-12-18T17:41:48;2.50;95.40
17887;DHT22;9069;52.044;7.472;2022-12-18T17:44:16;2.50;95.20
17887;DHT22;9069;52.044;7.472;2022-12-18T17:46:42;2.60;95.60
17887;DHT22;9069;52.044;7.472;2022-12-18T17:49:10;2.60;95.30
17887;DHT22;9069;52.044;7.472;2022-12-18T17:51:37;2.60;95.20
17887;DHT22;9069;52.044;7.472;2022-12-18T17:54:05;2.60;95.10
17887;DHT22;9069;52.044;7.472;2022-12-18T17:56:32;2.60;95.20
17887;DHT22;9069;52.044;7.472;2022-12-18T17:58:59;2.60;95.10
17887;DHT22;9069;52.044;7.472;2022-12-18T18:01:26;2.60;95.20
17887;DHT22;9069;52.044;7.472;2022-12-18T18:03:53;2.60;94.90
17887;DHT22;9069;52.044;7.472;2022-12-18T18:06:23;2.70;95.00
17887;DHT22;9069;52.044;7.472;2022-12-18T18:08:50;2.60;95.00
17887;DHT22;9069;52.044;7.472;2022-12-18T18:11:19;2.60;95.20
17887;DHT22;9069;52.044;7.472;2022-12-18T18:14:11;2.60;94.80
17887;DHT22;9069;52.044;7.472;2022-12-18T18:16:41;2.60;94.80
17887;DHT22;9069;52.044;7.472;2022-12-18T18:19:10;2.60;95.00
17887;DHT22;9069;52.044;7.472;2022-12-18T18:21:39;2.70;95.00
17887;DHT22;9069;52.044;7.472;2022-12-18T18:24:08;2.70;95.00
17887;DHT22;9069;52.044;7.472;2022-12-18T18:26:35;2.70;95.10
17887;DHT22;9069;52.044;7.472;2022-12-18T18:29:04;2.70;94.90
17887;DHT22;9069;52.044;7.472;2022-12-18T18:31:33;2.70;95.00
17887;DHT22;9069;52.044;7.472;2022-12-18T18:34:09;2.70;95.00
17887;DHT22;9069;52.044;7.472;2022-12-18T18:36:39;2.70;95.00